sensor_id;sensor_type;location;lat;lon;timestamp;P1;durP1;ratioP1;P2;durP2;ratioP2
17566;SDS011;8901;52.088;5.084;2023-09-19T00:00:55;5.67;;;4.63;;
17566;SDS011;8901;52.088;5.084;2023-09-19T00:03:23;6.13;;;4.60;;
17566;SDS011;8901;52.088;5.084;2023-09-19T00:05:52;6.37;;;5.10;;
17566;SDS011;8901;52.088;5.084;2023-09-19T00:08:20;8.53;;;4.67;;
17566;SDS011;8901;52.088;5.084;2023-09-19T00:10:50;9.40;;;5.07;;
17566;SDS011;8901;52.088;5.084;2023-09-19T00:13:18;6.73;;;5.67;;
17566;SDS011;8901;52.088;5.084;2023-09-19T00:15:46;7.70;;;5.00;;
17566;SDS011;8901;52.088;5.084;2023-09-19T00:18:15;5.80;;;5.20;;
17566;SDS011;8901;52.088;5.084;2023-09-19T00:20:42;6.80;;;5.10;;
17566;SDS011;8901;52.088;5.084;2023-09-19T00:23:14;5.30;;;4.80;;
17566;SDS011;8901;52.088;5.084;2023-09-19T00:25:41;5.30;;;4.90;;
17566;SDS011;8901;52.088;5.084;2023-09-19T00:28:08;8.23;;;5.60;;
17566;SDS011;8901;52.088;5.084;2023-09-19T00:30:36;8.27;;;5.37;;
17566;SDS011;8901;52.088;5.084;2023-09-19T00:33:04;6.57;;;4.60;;
17566;SDS011;8901;52.088;5.084;2023-09-19T00:35:33;6.28;;;4.70;;
17566;SDS011;8901;52.088;5.084;2023-09-19T00:38:01;10.07;;;5.20;;
17566;SDS011;8901;52.088;5.084;2023-09-19T00:40:30;5.60;;;4.63;;
17566;SDS011;8901;52.088;5.084;2023-09-19T00:42:58;6.97;;;5.17;;
17566;SDS011;8901;52.088;5.084;2023-09-19T00:45:26;5.40;;;4.70;;
17566;SDS011;8901;52.088;5.084;2023-09-19T00:47:53;5.73;;;5.07;;
17566;SDS011;8901;52.088;5.084;2023-09-19T00:50:22;6.13;;;5.33;;
17566;SDS011;8901;52.088;5.084;2023-09-19T00:52:50;7.80;;;5.40;;
17566;SDS011;8901;52.088;5.084;2023-09-19T00:55:21;9.17;;;5.30;;
17566;SDS011;8901;52.088;5.084;2023-09-19T00:57:49;5.30;;;4.80;;
17566;SDS011;8901;52.088;5.084;2023-09-19T01:00:17;7.73;;;4.90;;
17566;SDS011;8901;52.088;5.084;2023-09-19T01:02:46;7.17;;;5.60;;
17566;SDS011;8901;52.088;5.084;2023-09-19T01:05:13;5.67;;;5.07;;
17566;SDS011;8901;52.088;5.084;2023-09-19T01:07:40;5.37;;;4.83;;
17566;SDS011;8901;52.088;5.084;2023-09-19T01:10:10;6.37;;;4.97;;
17566;SDS011;8901;52.088;5.084;2023-09-19T01:12:42;6.07;;;5.10;;
17566;SDS011;8901;52.088;5.084;2023-09-19T01:15:15;6.77;;;5.00;;
17566;SDS011;8901;52.088;5.084;2023-09-19T01:17:45;5.23;;;4.83;;
17566;SDS011;8901;52.088;5.084;2023-09-19T01:20:20;7.67;;;5.10;;
17566;SDS011;8901;52.088;5.084;2023-09-19T01:22:56;5.70;;;5.20;;
17566;SDS011;8901;52.088;5.084;2023-09-19T01:28:20;7.50;;;5.00;;
17566;SDS011;8901;52.088;5.084;2023-09-19T01:30:52;6.43;;;4.93;;
17566;SDS011;8901;52.088;5.084;2023-09-19T01:33:23;6.40;;;4.93;;
17566;SDS011;8901;52.088;5.084;2023-09-19T01:35:51;8.37;;;5.27;;
17566;SDS011;8901;52.088;5.084;2023-09-19T01:38:23;7.23;;;5.33;;
17566;SDS011;8901;52.088;5.084;2023-09-19T01:40:56;8.43;;;5.60;;
17566;SDS011;8901;52.088;5.084;2023-09-19T01:43:26;7.30;;;5.17;;
17566;SDS011;8901;52.088;5.084;2023-09-19T01:45:57;6.68;;;5.35;;
17566;SDS011;8901;52.088;5.084;2023-09-19T01:48:29;6.43;;;5.73;;
17566;SDS011;8901;52.088;5.084;2023-09-19T01:50:59;7.33;;;5.10;;
17566;SDS011;8901;52.088;5.084;2023-09-19T01:53:27;7.70;;;5.97;;
17566;SDS011;8901;52.088;5.084;2023-09-19T01:55:56;5.83;;;5.23;;
17566;SDS011;8901;52.088;5.084;2023-09-19T01:58:27;6.87;;;5.10;;
17566;SDS011;8901;52.088;5.084;2023-09-19T02:00:58;6.57;;;5.13;;
17566;SDS011;8901;52.088;5.084;2023-09-19T02:03:25;7.07;;;5.17;;
17566;SDS011;8901;52.088;5.084;2023-09-19T02:05:54;8.27;;;5.30;;
17566;SDS011;8901;52.088;5.084;2023-09-19T02:08:22;8.40;;;6.07;;
17566;SDS011;8901;52.088;5.084;2023-09-19T02:10:50;10.10;;;5.43;;
17566;SDS011;8901;52.088;5.084;2023-09-19T02:13:18;7.87;;;5.50;;
17566;SDS011;8901;52.088;5.084;2023-09-19T02:15:45;8.47;;;5.67;;
17566;SDS011;8901;52.088;5.084;2023-09-19T02:18:14;7.80;;;5.70;;
17566;SDS011;8901;52.088;5.084;2023-09-19T02:20:42;7.77;;;4.80;;
17566;SDS011;8901;52.088;5.084;2023-09-19T02:23:09;7.20;;;5.67;;
17566;SDS011;8901;52.088;5.084;2023-09-19T02:25:37;6.37;;;5.60;;
17566;SDS011;8901;52.088;5.084;2023-09-19T02:28:05;6.37;;;5.40;;
17566;SDS011;8901;52.088;5.084;2023-09-19T02:30:34;8.93;;;5.83;;
17566;SDS011;8901;52.088;5.084;2023-09-19T02:33:02;10.03;;;5.47;;
17566;SDS011;8901;52.088;5.084;2023-09-19T02:35:31;7.50;;;5.73;;
17566;SDS011;8901;52.088;5.084;2023-09-19T02:38:01;10.53;;;5.67;;
17566;SDS011;8901;52.088;5.084;2023-09-19T02:40:31;6.70;;;5.10;;
17566;SDS011;8901;52.088;5.084;2023-09-19T02:43:00;10.40;;;5.80;;
17566;SDS011;8901;52.088;5.084;2023-09-19T02:45:28;8.93;;;5.57;;
17566;SDS011;8901;52.088;5.084;2023-09-19T02:47:55;10.43;;;6.00;;
17566;SDS011;8901;52.088;5.084;2023-09-19T02:50:23;7.17;;;5.80;;
17566;SDS011;8901;52.088;5.084;2023-09-19T02:52:52;10.30;;;6.13;;
17566;SDS011;8901;52.088;5.084;2023-09-19T02:55:20;9.03;;;6.00;;
17566;SDS011;8901;52.088;5.084;2023-09-19T02:57:47;10.03;;;6.07;;
17566;SDS011;8901;52.088;5.084;2023-09-19T03:00:15;13.07;;;6.60;;
17566;SDS011;8901;52.088;5.084;2023-09-19T03:02:45;7.83;;;6.17;;
17566;SDS011;8901;52.088;5.084;2023-09-19T03:05:13;11.73;;;6.57;;
17566;SDS011;8901;52.088;5.084;2023-09-19T03:07:40;9.67;;;5.80;;
17566;SDS011;8901;52.088;5.084;2023-09-19T03:10:09;11.37;;;5.60;;
17566;SDS011;8901;52.088;5.084;2023-09-19T03:12:36;9.67;;;6.20;;
17566;SDS011;8901;52.088;5.084;2023-09-19T03:15:05;9.93;;;6.47;;
17566;SDS011;8901;52.088;5.084;2023-09-19T03:17:33;10.77;;;5.67;;
17566;SDS011;8901;52.088;5.084;2023-09-19T03:20:01;8.63;;;6.43;;
17566;SDS011;8901;52.088;5.084;2023-09-19T03:22:29;9.40;;;6.37;;
17566;SDS011;8901;52.088;5.084;2023-09-19T03:24:56;8.40;;;6.20;;
17566;SDS011;8901;52.088;5.084;2023-09-19T03:27:24;9.90;;;6.03;;
17566;SDS011;8901;52.088;5.084;2023-09-19T03:29:54;10.80;;;6.67;;
17566;SDS011;8901;52.088;5.084;2023-09-19T03:32:30;8.47;;;6.10;;
17566;SDS011;8901;52.088;5.084;2023-09-19T03:34:58;9.17;;;6.63;;
17566;SDS011;8901;52.088;5.084;2023-09-19T03:37:25;11.17;;;6.47;;
17566;SDS011;8901;52.088;5.084;2023-09-19T03:39:52;9.60;;;6.27;;
17566;SDS011;8901;52.088;5.084;2023-09-19T03:42:19;10.13;;;6.37;;
17566;SDS011;8901;52.088;5.084;2023-09-19T03:44:52;7.87;;;6.10;;
17566;SDS011;8901;52.088;5.084;2023-09-19T03:47:20;8.97;;;6.10;;
17566;SDS011;8901;52.088;5.084;2023-09-19T03:49:47;9.20;;;6.50;;
17566;SDS011;8901;52.088;5.084;2023-09-19T03:52:14;10.87;;;6.60;;
17566;SDS011;8901;52.088;5.084;2023-09-19T03:54:42;8.60;;;6.30;;
17566;SDS011;8901;52.088;5.084;2023-09-19T03:57:09;8.07;;;5.97;;
17566;SDS011;8901;52.088;5.084;2023-09-19T03:59:37;8.47;;;6.07;;
17566;SDS011;8901;52.088;5.084;2023-09-19T04:02:09;12.10;;;6.10;;
17566;SDS011;8901;52.088;5.084;2023-09-19T04:04:46;11.03;;;5.77;;
17566;SDS011;8901;52.088;5.084;2023-09-19T04:07:14;8.50;;;5.43;;
17566;SDS011;8901;52.088;5.084;2023-09-19T04:09:41;8.53;;;5.90;;
17566;SDS011;8901;52.088;5.084;2023-09-19T04:12:08;8.17;;;6.10;;
17566;SDS011;8901;52.088;5.084;2023-09-19T04:14:36;9.20;;;5.83;;
17566;SDS011;8901;52.088;5.084;2023-09-19T04:17:03;8.00;;;6.37;;
17566;SDS011;8901;52.088;5.084;2023-09-19T04:19:32;10.23;;;7.03;;
17566;SDS011;8901;52.088;5.084;2023-09-19T04:22:00;14.07;;;7.20;;
17566;SDS011;8901;52.088;5.084;2023-09-19T04:24:28;9.80;;;6.63;;
17566;SDS011;8901;52.088;5.084;2023-09-19T04:26:56;8.73;;;6.50;;
17566;SDS011;8901;52.088;5.084;2023-09-19T04:29:24;10.33;;;6.63;;
17566;SDS011;8901;52.088;5.084;2023-09-19T04:31:54;6.83;;;5.70;;
17566;SDS011;8901;52.088;5.084;2023-09-19T04:34:22;9.20;;;6.10;;
17566;SDS011;8901;52.088;5.084;2023-09-19T04:36:51;9.53;;;6.23;;
17566;SDS011;8901;52.088;5.084;2023-09-19T04:39:18;7.27;;;5.37;;
17566;SDS011;8901;52.088;5.084;2023-09-19T04:41:46;10.33;;;6.10;;
17566;SDS011;8901;52.088;5.084;2023-09-19T04:44:13;11.07;;;6.30;;
17566;SDS011;8901;52.088;5.084;2023-09-19T04:46:40;7.87;;;5.77;;
17566;SDS011;8901;52.088;5.084;2023-09-19T04:49:08;7.17;;;6.33;;
17566;SDS011;8901;52.088;5.084;2023-09-19T04:51:35;9.63;;;6.20;;
17566;SDS011;8901;52.088;5.084;2023-09-19T04:54:03;8.57;;;5.93;;
17566;SDS011;8901;52.088;5.084;2023-09-19T04:56:31;7.03;;;5.83;;
17566;SDS011;8901;52.088;5.084;2023-09-19T04:58:58;9.57;;;6.57;;
17566;SDS011;8901;52.088;5.084;2023-09-19T05:01:26;10.37;;;6.13;;
17566;SDS011;8901;52.088;5.084;2023-09-19T05:03:53;9.73;;;6.10;;
17566;SDS011;8901;52.088;5.084;2023-09-19T05:06:20;7.90;;;5.70;;
17566;SDS011;8901;52.088;5.084;2023-09-19T05:08:47;9.30;;;5.53;;
17566;SDS011;8901;52.088;5.084;2023-09-19T05:11:18;10.13;;;5.43;;
17566;SDS011;8901;52.088;5.084;2023-09-19T05:13:46;8.67;;;5.77;;
17566;SDS011;8901;52.088;5.084;2023-09-19T05:16:15;11.27;;;6.03;;
17566;SDS011;8901;52.088;5.084;2023-09-19T05:18:43;11.93;;;6.67;;
17566;SDS011;8901;52.088;5.084;2023-09-19T05:21:10;10.43;;;6.80;;
17566;SDS011;8901;52.088;5.084;2023-09-19T05:23:38;12.90;;;5.93;;
17566;SDS011;8901;52.088;5.084;2023-09-19T05:26:05;12.33;;;6.47;;
17566;SDS011;8901;52.088;5.084;2023-09-19T05:28:33;7.33;;;5.60;;
17566;SDS011;8901;52.088;5.084;2023-09-19T05:31:01;9.97;;;6.07;;
17566;SDS011;8901;52.088;5.084;2023-09-19T05:33:28;9.83;;;5.97;;
17566;SDS011;8901;52.088;5.084;2023-09-19T05:35:56;8.43;;;5.60;;
17566;SDS011;8901;52.088;5.084;2023-09-19T05:38:23;10.03;;;5.77;;
17566;SDS011;8901;52.088;5.084;2023-09-19T05:40:52;11.50;;;5.57;;
17566;SDS011;8901;52.088;5.084;2023-09-19T05:43:19;10.83;;;6.07;;
17566;SDS011;8901;52.088;5.084;2023-09-19T05:45:48;10.73;;;5.70;;
17566;SDS011;8901;52.088;5.084;2023-09-19T05:48:16;10.17;;;6.30;;
17566;SDS011;8901;52.088;5.084;2023-09-19T05:50:46;11.43;;;6.27;;
17566;SDS011;8901;52.088;5.084;2023-09-19T05:53:14;11.83;;;6.17;;
17566;SDS011;8901;52.088;5.084;2023-09-19T05:55:41;11.57;;;5.37;;
17566;SDS011;8901;52.088;5.084;2023-09-19T05:58:08;7.50;;;5.47;;
17566;SDS011;8901;52.088;5.084;2023-09-19T06:00:39;9.60;;;6.10;;
17566;SDS011;8901;52.088;5.084;2023-09-19T06:03:09;7.43;;;5.40;;
17566;SDS011;8901;52.088;5.084;2023-09-19T06:05:38;9.60;;;5.97;;
17566;SDS011;8901;52.088;5.084;2023-09-19T06:08:06;7.47;;;6.00;;
17566;SDS011;8901;52.088;5.084;2023-09-19T06:10:34;7.83;;;6.13;;
17566;SDS011;8901;52.088;5.084;2023-09-19T06:13:01;9.23;;;6.30;;
17566;SDS011;8901;52.088;5.084;2023-09-19T06:15:30;10.40;;;6.33;;
17566;SDS011;8901;52.088;5.084;2023-09-19T06:17:58;8.23;;;5.80;;
17566;SDS011;8901;52.088;5.084;2023-09-19T06:20:31;7.60;;;5.57;;
17566;SDS011;8901;52.088;5.084;2023-09-19T06:22:59;12.90;;;5.97;;
17566;SDS011;8901;52.088;5.084;2023-09-19T06:25:27;10.87;;;6.53;;
17566;SDS011;8901;52.088;5.084;2023-09-19T06:27:54;12.70;;;6.40;;
17566;SDS011;8901;52.088;5.084;2023-09-19T06:30:23;11.40;;;5.80;;
17566;SDS011;8901;52.088;5.084;2023-09-19T06:32:55;10.70;;;7.00;;
17566;SDS011;8901;52.088;5.084;2023-09-19T06:35:22;8.57;;;5.97;;
17566;SDS011;8901;52.088;5.084;2023-09-19T06:37:52;10.27;;;6.70;;
17566;SDS011;8901;52.088;5.084;2023-09-19T06:40:22;7.53;;;5.80;;
17566;SDS011;8901;52.088;5.084;2023-09-19T06:42:50;11.27;;;6.47;;
17566;SDS011;8901;52.088;5.084;2023-09-19T06:45:17;9.67;;;6.60;;
17566;SDS011;8901;52.088;5.084;2023-09-19T06:47:46;9.80;;;6.53;;
17566;SDS011;8901;52.088;5.084;2023-09-19T06:50:15;14.47;;;6.93;;
17566;SDS011;8901;52.088;5.084;2023-09-19T06:52:43;12.73;;;6.90;;
17566;SDS011;8901;52.088;5.084;2023-09-19T06:55:12;10.50;;;6.60;;
17566;SDS011;8901;52.088;5.084;2023-09-19T06:57:41;11.00;;;5.70;;
17566;SDS011;8901;52.088;5.084;2023-09-19T07:00:09;10.63;;;6.10;;
17566;SDS011;8901;52.088;5.084;2023-09-19T07:02:41;10.97;;;6.60;;
17566;SDS011;8901;52.088;5.084;2023-09-19T07:05:09;9.77;;;6.73;;
17566;SDS011;8901;52.088;5.084;2023-09-19T07:07:36;6.97;;;5.43;;
17566;SDS011;8901;52.088;5.084;2023-09-19T07:10:04;19.73;;;7.13;;
17566;SDS011;8901;52.088;5.084;2023-09-19T07:12:33;8.87;;;5.90;;
17566;SDS011;8901;52.088;5.084;2023-09-19T07:15:00;12.00;;;6.83;;
17566;SDS011;8901;52.088;5.084;2023-09-19T07:17:28;8.57;;;6.20;;
17566;SDS011;8901;52.088;5.084;2023-09-19T07:19:55;10.73;;;6.23;;
17566;SDS011;8901;52.088;5.084;2023-09-19T07:22:22;11.33;;;6.33;;
17566;SDS011;8901;52.088;5.084;2023-09-19T07:24:50;6.47;;;5.87;;
17566;SDS011;8901;52.088;5.084;2023-09-19T07:27:17;14.17;;;6.83;;
17566;SDS011;8901;52.088;5.084;2023-09-19T07:29:45;9.93;;;6.20;;
17566;SDS011;8901;52.088;5.084;2023-09-19T07:32:13;9.77;;;6.93;;
17566;SDS011;8901;52.088;5.084;2023-09-19T07:34:42;12.13;;;6.10;;
17566;SDS011;8901;52.088;5.084;2023-09-19T07:37:10;10.83;;;6.13;;
17566;SDS011;8901;52.088;5.084;2023-09-19T07:39:38;13.77;;;6.53;;
17566;SDS011;8901;52.088;5.084;2023-09-19T07:42:06;9.50;;;6.40;;
17566;SDS011;8901;52.088;5.084;2023-09-19T07:44:34;10.70;;;7.03;;
17566;SDS011;8901;52.088;5.084;2023-09-19T07:47:03;9.70;;;6.20;;
17566;SDS011;8901;52.088;5.084;2023-09-19T07:49:30;9.57;;;6.47;;
17566;SDS011;8901;52.088;5.084;2023-09-19T07:51:58;10.07;;;6.80;;
17566;SDS011;8901;52.088;5.084;2023-09-19T07:54:25;9.80;;;6.30;;
17566;SDS011;8901;52.088;5.084;2023-09-19T07:56:55;12.03;;;6.73;;
17566;SDS011;8901;52.088;5.084;2023-09-19T07:59:23;10.37;;;6.67;;
17566;SDS011;8901;52.088;5.084;2023-09-19T08:01:51;13.87;;;7.87;;
17566;SDS011;8901;52.088;5.084;2023-09-19T08:04:19;12.87;;;6.47;;
17566;SDS011;8901;52.088;5.084;2023-09-19T08:06:47;14.93;;;7.27;;
17566;SDS011;8901;52.088;5.084;2023-09-19T08:09:17;13.93;;;7.10;;
17566;SDS011;8901;52.088;5.084;2023-09-19T08:11:45;14.10;;;7.73;;
17566;SDS011;8901;52.088;5.084;2023-09-19T08:14:13;21.90;;;9.27;;
17566;SDS011;8901;52.088;5.084;2023-09-19T08:16:40;14.50;;;6.93;;
17566;SDS011;8901;52.088;5.084;2023-09-19T08:19:09;14.33;;;6.70;;
17566;SDS011;8901;52.088;5.084;2023-09-19T08:21:37;17.23;;;7.03;;
17566;SDS011;8901;52.088;5.084;2023-09-19T08:24:05;9.93;;;7.30;;
17566;SDS011;8901;52.088;5.084;2023-09-19T08:26:34;16.10;;;8.40;;
17566;SDS011;8901;52.088;5.084;2023-09-19T08:29:02;13.60;;;7.03;;
17566;SDS011;8901;52.088;5.084;2023-09-19T08:31:32;12.53;;;7.67;;
17566;SDS011;8901;52.088;5.084;2023-09-19T08:34:00;16.00;;;6.77;;
17566;SDS011;8901;52.088;5.084;2023-09-19T08:36:27;12.70;;;7.47;;
17566;SDS011;8901;52.088;5.084;2023-09-19T08:38:57;12.63;;;6.73;;
17566;SDS011;8901;52.088;5.084;2023-09-19T08:41:24;11.93;;;6.97;;
17566;SDS011;8901;52.088;5.084;2023-09-19T08:43:51;16.00;;;7.80;;
17566;SDS011;8901;52.088;5.084;2023-09-19T08:46:19;10.73;;;6.30;;
17566;SDS011;8901;52.088;5.084;2023-09-19T08:48:50;14.67;;;7.13;;
17566;SDS011;8901;52.088;5.084;2023-09-19T08:51:22;10.27;;;6.87;;
17566;SDS011;8901;52.088;5.084;2023-09-19T08:53:54;12.40;;;7.97;;
17566;SDS011;8901;52.088;5.084;2023-09-19T08:56:27;8.83;;;6.03;;
17566;SDS011;8901;52.088;5.084;2023-09-19T08:58:57;10.70;;;5.97;;
17566;SDS011;8901;52.088;5.084;2023-09-19T09:01:25;12.07;;;6.37;;
17566;SDS011;8901;52.088;5.084;2023-09-19T09:03:52;10.77;;;5.90;;
17566;SDS011;8901;52.088;5.084;2023-09-19T09:06:20;9.13;;;6.23;;
17566;SDS011;8901;52.088;5.084;2023-09-19T09:08:48;12.33;;;6.50;;
17566;SDS011;8901;52.088;5.084;2023-09-19T09:11:17;8.90;;;6.23;;
17566;SDS011;8901;52.088;5.084;2023-09-19T09:13:45;15.17;;;7.13;;
17566;SDS011;8901;52.088;5.084;2023-09-19T09:16:13;12.60;;;6.47;;
17566;SDS011;8901;52.088;5.084;2023-09-19T09:18:43;11.43;;;6.40;;
17566;SDS011;8901;52.088;5.084;2023-09-19T09:21:11;7.70;;;5.80;;
17566;SDS011;8901;52.088;5.084;2023-09-19T09:23:40;15.67;;;6.83;;
17566;SDS011;8901;52.088;5.084;2023-09-19T09:26:07;11.83;;;6.30;;
17566;SDS011;8901;52.088;5.084;2023-09-19T09:28:35;15.33;;;6.07;;
17566;SDS011;8901;52.088;5.084;2023-09-19T09:31:05;11.83;;;5.57;;
17566;SDS011;8901;52.088;5.084;2023-09-19T09:33:34;11.20;;;5.27;;
17566;SDS011;8901;52.088;5.084;2023-09-19T09:36:02;10.20;;;5.10;;
17566;SDS011;8901;52.088;5.084;2023-09-19T09:38:42;16.30;;;5.33;;
17566;SDS011;8901;52.088;5.084;2023-09-19T09:41:10;11.17;;;4.63;;
17566;SDS011;8901;52.088;5.084;2023-09-19T09:43:41;11.53;;;5.57;;
17566;SDS011;8901;52.088;5.084;2023-09-19T09:46:14;10.10;;;4.40;;
17566;SDS011;8901;52.088;5.084;2023-09-19T09:48:59;12.80;;;5.00;;
17566;SDS011;8901;52.088;5.084;2023-09-19T09:51:44;10.37;;;4.93;;
17566;SDS011;8901;52.088;5.084;2023-09-19T09:54:14;8.47;;;4.17;;
17566;SDS011;8901;52.088;5.084;2023-09-19T09:56:54;11.20;;;4.80;;
17566;SDS011;8901;52.088;5.084;2023-09-19T10:02:07;14.80;;;5.13;;
17566;SDS011;8901;52.088;5.084;2023-09-19T10:04:38;11.67;;;4.80;;
17566;SDS011;8901;52.088;5.084;2023-09-19T10:07:23;11.27;;;5.30;;
17566;SDS011;8901;52.088;5.084;2023-09-19T10:09:53;13.07;;;5.03;;
17566;SDS011;8901;52.088;5.084;2023-09-19T10:12:29;9.67;;;4.40;;
17566;SDS011;8901;52.088;5.084;2023-09-19T10:14:57;9.37;;;4.97;;
17566;SDS011;8901;52.088;5.084;2023-09-19T10:17:27;13.00;;;4.73;;
17566;SDS011;8901;52.088;5.084;2023-09-19T10:19:55;5.77;;;3.73;;
17566;SDS011;8901;52.088;5.084;2023-09-19T10:22:23;8.83;;;4.23;;
17566;SDS011;8901;52.088;5.084;2023-09-19T10:24:51;8.20;;;4.20;;
17566;SDS011;8901;52.088;5.084;2023-09-19T10:27:20;12.20;;;4.60;;
17566;SDS011;8901;52.088;5.084;2023-09-19T10:29:48;10.17;;;4.40;;
17566;SDS011;8901;52.088;5.084;2023-09-19T10:32:16;8.80;;;4.23;;
17566;SDS011;8901;52.088;5.084;2023-09-19T10:34:45;12.13;;;4.20;;
17566;SDS011;8901;52.088;5.084;2023-09-19T10:37:13;9.27;;;3.70;;
17566;SDS011;8901;52.088;5.084;2023-09-19T10:39:45;9.20;;;3.77;;
17566;SDS011;8901;52.088;5.084;2023-09-19T10:42:13;5.87;;;3.80;;
17566;SDS011;8901;52.088;5.084;2023-09-19T10:44:42;7.33;;;3.70;;
17566;SDS011;8901;52.088;5.084;2023-09-19T10:47:11;7.73;;;3.80;;
17566;SDS011;8901;52.088;5.084;2023-09-19T10:49:42;6.97;;;4.23;;
17566;SDS011;8901;52.088;5.084;2023-09-19T10:52:13;11.97;;;4.23;;
17566;SDS011;8901;52.088;5.084;2023-09-19T10:54:45;7.20;;;4.30;;
17566;SDS011;8901;52.088;5.084;2023-09-19T10:57:14;9.90;;;4.37;;
17566;SDS011;8901;52.088;5.084;2023-09-19T11:00:00;10.90;;;4.13;;
17566;SDS011;8901;52.088;5.084;2023-09-19T11:05:34;6.10;;;4.00;;
17566;SDS011;8901;52.088;5.084;2023-09-19T11:08:07;7.60;;;4.17;;
17566;SDS011;8901;52.088;5.084;2023-09-19T11:10:45;8.57;;;4.20;;
17566;SDS011;8901;52.088;5.084;2023-09-19T11:13:25;8.47;;;4.03;;
17566;SDS011;8901;52.088;5.084;2023-09-19T11:18:53;8.57;;;4.10;;
17566;SDS011;8901;52.088;5.084;2023-09-19T11:21:51;7.97;;;4.20;;
17566;SDS011;8901;52.088;5.084;2023-09-19T11:24:28;6.03;;;3.80;;
17566;SDS011;8901;52.088;5.084;2023-09-19T11:27:10;6.63;;;3.93;;
17566;SDS011;8901;52.088;5.084;2023-09-19T11:29:38;11.20;;;4.67;;
17566;SDS011;8901;52.088;5.084;2023-09-19T11:32:06;7.77;;;4.00;;
17566;SDS011;8901;52.088;5.084;2023-09-19T11:34:38;5.93;;;3.70;;
17566;SDS011;8901;52.088;5.084;2023-09-19T11:37:18;5.63;;;4.17;;
17566;SDS011;8901;52.088;5.084;2023-09-19T11:40:06;7.23;;;4.13;;
17566;SDS011;8901;52.088;5.084;2023-09-19T11:42:41;5.63;;;3.80;;
17566;SDS011;8901;52.088;5.084;2023-09-19T11:45:09;6.13;;;4.20;;
17566;SDS011;8901;52.088;5.084;2023-09-19T11:47:56;9.70;;;3.90;;
17566;SDS011;8901;52.088;5.084;2023-09-19T11:50:23;8.13;;;3.93;;
17566;SDS011;8901;52.088;5.084;2023-09-19T11:52:51;6.10;;;3.90;;
17566;SDS011;8901;52.088;5.084;2023-09-19T11:55:21;8.47;;;4.17;;
17566;SDS011;8901;52.088;5.084;2023-09-19T11:57:50;8.50;;;4.33;;
17566;SDS011;8901;52.088;5.084;2023-09-19T12:00:19;5.77;;;3.80;;
17566;SDS011;8901;52.088;5.084;2023-09-19T12:02:47;4.80;;;3.67;;
17566;SDS011;8901;52.088;5.084;2023-09-19T12:05:16;7.63;;;3.80;;
17566;SDS011;8901;52.088;5.084;2023-09-19T12:07:46;4.53;;;4.10;;
17566;SDS011;8901;52.088;5.084;2023-09-19T12:10:14;8.23;;;4.13;;
17566;SDS011;8901;52.088;5.084;2023-09-19T12:12:48;4.90;;;4.07;;
17566;SDS011;8901;52.088;5.084;2023-09-19T12:15:22;5.30;;;3.70;;
17566;SDS011;8901;52.088;5.084;2023-09-19T12:17:53;6.50;;;3.60;;
17566;SDS011;8901;52.088;5.084;2023-09-19T12:20:21;6.57;;;3.83;;
17566;SDS011;8901;52.088;5.084;2023-09-19T12:22:48;6.77;;;3.80;;
17566;SDS011;8901;52.088;5.084;2023-09-19T12:25:16;4.50;;;3.40;;
17566;SDS011;8901;52.088;5.084;2023-09-19T12:27:45;8.33;;;3.77;;
17566;SDS011;8901;52.088;5.084;2023-09-19T12:30:14;7.50;;;3.63;;
17566;SDS011;8901;52.088;5.084;2023-09-19T12:32:43;6.10;;;3.70;;
17566;SDS011;8901;52.088;5.084;2023-09-19T12:35:10;6.00;;;3.60;;
17566;SDS011;8901;52.088;5.084;2023-09-19T12:37:53;7.17;;;3.50;;
17566;SDS011;8901;52.088;5.084;2023-09-19T12:40:21;8.70;;;3.53;;
17566;SDS011;8901;52.088;5.084;2023-09-19T12:42:52;8.40;;;3.50;;
17566;SDS011;8901;52.088;5.084;2023-09-19T12:45:22;7.20;;;3.30;;
17566;SDS011;8901;52.088;5.084;2023-09-19T12:50:33;5.20;;;3.53;;
17566;SDS011;8901;52.088;5.084;2023-09-19T12:53:00;5.63;;;3.53;;
17566;SDS011;8901;52.088;5.084;2023-09-19T12:55:27;12.73;;;3.67;;
17566;SDS011;8901;52.088;5.084;2023-09-19T12:58:07;6.57;;;3.63;;
17566;SDS011;8901;52.088;5.084;2023-09-19T13:00:37;5.63;;;2.83;;
17566;SDS011;8901;52.088;5.084;2023-09-19T13:03:10;5.38;;;2.78;;
17566;SDS011;8901;52.088;5.084;2023-09-19T13:05:50;5.03;;;2.90;;
17566;SDS011;8901;52.088;5.084;2023-09-19T13:08:19;5.13;;;2.60;;
17566;SDS011;8901;52.088;5.084;2023-09-19T13:11:03;5.28;;;2.60;;
17566;SDS011;8901;52.088;5.084;2023-09-19T13:13:32;8.80;;;2.67;;
17566;SDS011;8901;52.088;5.084;2023-09-19T13:16:05;6.50;;;2.50;;
17566;SDS011;8901;52.088;5.084;2023-09-19T13:18:42;4.50;;;2.20;;
17566;SDS011;8901;52.088;5.084;2023-09-19T13:21:11;4.00;;;2.30;;
17566;SDS011;8901;52.088;5.084;2023-09-19T13:23:40;3.77;;;2.40;;
17566;SDS011;8901;52.088;5.084;2023-09-19T13:26:08;4.45;;;2.80;;
17566;SDS011;8901;52.088;5.084;2023-09-19T13:28:37;6.50;;;2.67;;
17566;SDS011;8901;52.088;5.084;2023-09-19T13:31:06;6.27;;;2.90;;
17566;SDS011;8901;52.088;5.084;2023-09-19T13:33:34;3.73;;;2.60;;
17566;SDS011;8901;52.088;5.084;2023-09-19T13:36:01;6.90;;;2.67;;
17566;SDS011;8901;52.088;5.084;2023-09-19T13:38:29;4.27;;;2.60;;
17566;SDS011;8901;52.088;5.084;2023-09-19T13:40:57;7.40;;;2.93;;
17566;SDS011;8901;52.088;5.084;2023-09-19T13:43:27;5.47;;;2.70;;
17566;SDS011;8901;52.088;5.084;2023-09-19T13:45:54;8.60;;;2.70;;
17566;SDS011;8901;52.088;5.084;2023-09-19T13:48:24;6.68;;;2.92;;
17566;SDS011;8901;52.088;5.084;2023-09-19T13:50:51;4.73;;;3.10;;
17566;SDS011;8901;52.088;5.084;2023-09-19T13:53:18;6.97;;;2.90;;
17566;SDS011;8901;52.088;5.084;2023-09-19T13:55:46;4.13;;;2.53;;
17566;SDS011;8901;52.088;5.084;2023-09-19T13:58:13;4.83;;;2.90;;
17566;SDS011;8901;52.088;5.084;2023-09-19T14:00:42;4.10;;;2.80;;
17566;SDS011;8901;52.088;5.084;2023-09-19T14:03:09;7.57;;;3.20;;
17566;SDS011;8901;52.088;5.084;2023-09-19T14:05:38;6.93;;;3.65;;
17566;SDS011;8901;52.088;5.084;2023-09-19T14:08:07;7.00;;;3.50;;
17566;SDS011;8901;52.088;5.084;2023-09-19T14:10:34;7.23;;;3.10;;
17566;SDS011;8901;52.088;5.084;2023-09-19T14:13:02;5.63;;;3.00;;
17566;SDS011;8901;52.088;5.084;2023-09-19T14:15:29;5.37;;;3.40;;
17566;SDS011;8901;52.088;5.084;2023-09-19T14:18:00;3.17;;;2.73;;
17566;SDS011;8901;52.088;5.084;2023-09-19T14:20:27;7.18;;;3.33;;
17566;SDS011;8901;52.088;5.084;2023-09-19T14:22:57;5.60;;;3.33;;
17566;SDS011;8901;52.088;5.084;2023-09-19T14:25:25;9.00;;;3.30;;
17566;SDS011;8901;52.088;5.084;2023-09-19T14:27:54;4.30;;;3.23;;
17566;SDS011;8901;52.088;5.084;2023-09-19T14:30:21;9.55;;;3.75;;
17566;SDS011;8901;52.088;5.084;2023-09-19T14:32:49;9.67;;;3.60;;
17566;SDS011;8901;52.088;5.084;2023-09-19T14:35:16;3.60;;;3.30;;
17566;SDS011;8901;52.088;5.084;2023-09-19T14:37:43;5.50;;;4.28;;
17566;SDS011;8901;52.088;5.084;2023-09-19T14:40:12;7.70;;;3.67;;
17566;SDS011;8901;52.088;5.084;2023-09-19T14:42:43;3.50;;;2.95;;
17566;SDS011;8901;52.088;5.084;2023-09-19T14:45:10;4.23;;;3.03;;
17566;SDS011;8901;52.088;5.084;2023-09-19T14:47:39;5.23;;;3.00;;
17566;SDS011;8901;52.088;5.084;2023-09-19T14:50:07;5.43;;;2.90;;
17566;SDS011;8901;52.088;5.084;2023-09-19T14:52:34;6.70;;;3.43;;
17566;SDS011;8901;52.088;5.084;2023-09-19T14:55:01;8.23;;;2.80;;
17566;SDS011;8901;52.088;5.084;2023-09-19T14:57:31;6.07;;;3.20;;
17566;SDS011;8901;52.088;5.084;2023-09-19T14:59:58;6.90;;;3.43;;
17566;SDS011;8901;52.088;5.084;2023-09-19T15:02:26;4.70;;;2.83;;
17566;SDS011;8901;52.088;5.084;2023-09-19T15:04:53;7.73;;;3.40;;
17566;SDS011;8901;52.088;5.084;2023-09-19T15:07:21;5.50;;;2.97;;
17566;SDS011;8901;52.088;5.084;2023-09-19T15:09:48;4.87;;;3.17;;
17566;SDS011;8901;52.088;5.084;2023-09-19T15:12:16;6.20;;;3.13;;
17566;SDS011;8901;52.088;5.084;2023-09-19T15:14:45;6.70;;;2.80;;
17566;SDS011;8901;52.088;5.084;2023-09-19T15:17:13;7.07;;;3.88;;
17566;SDS011;8901;52.088;5.084;2023-09-19T15:19:40;6.83;;;3.20;;
17566;SDS011;8901;52.088;5.084;2023-09-19T15:22:07;6.63;;;2.90;;
17566;SDS011;8901;52.088;5.084;2023-09-19T15:24:36;7.27;;;3.00;;